Latest Weather Observations for Adelaide

IDS60901

Issued at 6:25 pm CST Thursday 28 August 2014 (issued every 10 minutes, with the page automatically refreshed every 10 minutes)

About weather observations | Map of Adelaide area stations | Latest observations for Adelaide area | Other Formats
Station Details ID: 023090 Name: KENT TOWN Lat: -34.92 Lon: 138.62 Height: 48.0 m
Data from the previous 72 hours. | See also: Recent months at Adelaide
Date/Time
CST
Tmp

°C
App
Tmp
°C
Dew
Point
°C
Rel
Hum
%
Delta-T

°C
Wind Press
QNH
hPa
Press
MSL
hPa
Rain
since
9 am
mm
Dir
 
Spd
km/h
Gust
km/h
Spd
kts
Gust
kts
28/06:00pm 18.9 17.4 8.4 50 5.4 S 6 7 3 4 1027.2 1027.3 0.0
28/05:30pm 20.0 18.1 6.9 42 6.6 S 6 9 3 5 1027.1 - 0.0
28/05:00pm 20.7 18.5 6.0 38 7.4 SSW 7 11 4 6 1027.1 - 0.0
28/04:30pm 21.2 18.3 6.3 38 7.5 WSW 11 15 6 8 1027.2 - 0.0
28/04:00pm 21.5 18.2 6.2 37 7.7 WSW 13 19 7 10 1027.1 - 0.0
28/03:30pm 22.4 19.2 6.7 36 8.1 W 13 20 7 11 1027.0 - 0.0
28/03:00pm 23.0 20.2 7.1 36 8.2 WSW 11 17 6 9 1026.8 1026.9 0.0
28/02:30pm 22.4 19.1 6.4 35 8.2 W 13 19 7 10 1026.9 - 0.0
28/02:00pm 22.9 20.0 8.0 38 7.9 W 13 20 7 11 1027.1 - 0.0
28/01:30pm 22.7 19.9 8.5 40 7.5 WNW 13 19 7 10 1027.3 - 0.0
28/01:00pm 22.9 20.8 8.3 39 7.7 W 9 17 5 9 1027.7 - 0.0
28/12:30pm 22.7 20.1 6.3 34 8.4 NW 9 17 5 9 1028.0 - 0.0
28/12:00pm 22.2 20.0 6.1 35 8.1 NNW 7 15 4 8 1028.4 1028.5 0.0
28/11:30am 21.9 18.1 5.9 35 8.1 N 15 20 8 11 1028.6 - 0.0
28/11:00am 21.5 18.5 5.9 36 7.8 NNW 11 20 6 11 1028.8 - 0.0
28/10:30am 20.8 18.7 8.3 44 6.5 NNW 9 13 5 7 1028.8 - 0.0
28/10:00am 19.3 17.4 7.7 47 5.9 N 7 11 4 6 1028.9 - 0.0
28/09:30am 16.6 16.1 7.8 56 4.4 CALM 0 7 0 4 1029.1 - 0.0
28/09:00am 14.6 13.6 7.2 61 3.6 N 2 7 1 4 1029.2 1029.3 0.0
28/08:30am 12.5 10.7 7.3 70 2.5 N 6 7 3 4 1029.3 - 0.0
28/08:00am 10.3 8.5 7.1 80 1.5 N 6 7 3 4 1029.2 - 0.0
28/07:30am 8.1 7.3 6.3 88 0.8 CALM 0 0 0 0 1028.9 - 0.0
28/07:00am 7.4 6.4 5.8 90 0.7 CALM 0 0 0 0 1028.5 - 0.0
28/06:30am 7.4 6.4 5.8 90 0.7 CALM 0 0 0 0 1028.1 - 0.0
28/06:00am 7.4 6.4 5.8 90 0.7 CALM 0 0 0 0 1027.7 1027.8 0.0
28/05:30am 7.5 6.6 5.9 90 0.7 ENE 0 0 0 0 1027.7 - 0.0
28/05:00am 7.9 7.0 6.1 88 0.8 CALM 0 0 0 0 1027.7 - 0.0
28/04:30am 7.9 7.0 6.1 88 0.8 CALM 0 0 0 0 1027.6 - 0.0
28/04:00am 8.3 7.5 6.3 87 0.9 CALM 0 0 0 0 1027.4 - 0.0
28/03:30am 8.2 7.4 6.5 89 0.8 CALM 0 0 0 0 1027.2 - 0.0
28/03:00am 8.7 7.9 6.5 86 1.0 CALM 0 0 0 0 1027.4 1027.5 0.0
28/02:30am 8.8 8.0 6.6 86 1.0 CALM 0 0 0 0 1027.6 - 0.0
28/02:00am 8.9 8.1 6.7 86 1.0 CALM 0 0 0 0 1027.7 - 0.0
28/01:30am 9.4 8.7 6.8 84 1.2 CALM 0 0 0 0 1027.9 - 0.0
28/01:00am 9.5 8.8 6.9 84 1.2 CALM 0 0 0 0 1028.0 - 0.0
28/12:30am 9.6 9.0 7.3 85 1.1 CALM 0 0 0 0 1028.0 - 0.0
28/12:00am 10.0 9.4 7.2 83 1.3 ENE 0 0 0 0 1028.1 1028.2 0.0
 
Date/Time
CST
Tmp

°C
App
Tmp
°C
Dew
Point
°C
Rel
Hum
%
Delta-T

°C
Wind Press
QNH
hPa
Press
MSL
hPa
Rain
since
9 am
mm
Dir
 
Spd
km/h
Gust
km/h
Spd
kts
Gust
kts
27/11:30pm 10.4 9.8 7.2 80 1.5 CALM 0 0 0 0 1028.0 - 0.0
27/11:00pm 10.7 8.9 7.3 79 1.6 ENE 6 7 3 4 1028.1 - 0.0
27/10:30pm 11.0 10.0 7.4 78 1.7 ENE 2 7 1 4 1028.1 - 0.0
27/10:00pm 11.3 10.8 7.8 79 1.7 CALM 0 0 0 0 1028.1 - 0.0
27/09:30pm 12.0 11.5 7.9 76 2.0 CALM 0 0 0 0 1028.0 - 0.0
27/09:00pm 12.4 11.9 7.7 73 2.3 CALM 0 0 0 0 1027.9 1028.0 0.0
27/08:30pm 13.1 12.1 7.3 68 2.8 E 2 6 1 3 1027.8 - 0.0
27/08:00pm 13.7 12.4 7.6 66 3.0 ESE 4 6 2 3 1027.7 - 0.0
27/07:30pm 14.5 12.5 6.4 58 3.9 SE 6 7 3 4 1027.4 - 0.0
27/07:00pm 15.5 13.2 4.8 49 5.0 S 6 7 3 4 1027.0 - 0.0
27/06:30pm 16.4 13.8 4.4 45 5.6 SSW 7 11 4 6 1026.9 - 0.0
27/06:00pm 17.0 14.3 5.8 47 5.4 SW 9 11 5 6 1026.6 1026.7 0.0
27/05:30pm 18.2 15.8 5.1 42 6.3 WSW 7 9 4 5 1026.2 - 0.0
27/05:00pm 18.9 15.8 3.8 36 7.1 WSW 9 13 5 7 1026.0 - 0.0
27/04:30pm 19.4 16.4 4.0 36 7.3 SW 9 13 5 7 1025.9 - 0.0
27/04:00pm 19.8 16.0 4.1 35 7.5 WSW 13 17 7 9 1025.8 - 0.0
27/03:30pm 19.8 15.5 5.2 38 7.2 WSW 17 24 9 13 1025.9 - 0.0
27/03:00pm 21.0 17.5 7.1 40 7.1 WSW 15 22 8 12 1025.6 1025.7 0.0
27/02:30pm 21.3 19.2 6.7 38 7.4 N 7 13 4 7 1025.5 - 0.0
27/02:00pm 21.9 19.7 6.2 36 8.0 NW 7 13 4 7 1025.6 - 0.0
27/01:30pm 20.8 18.2 5.9 37 7.5 NNW 9 17 5 9 1025.9 - 0.0
27/01:00pm 20.3 17.5 6.8 41 6.8 WNW 11 17 6 9 1026.4 - 0.0
27/12:30pm 19.4 17.3 8.4 49 5.7 SW 9 13 5 7 1026.9 - 0.0
27/12:00pm 18.8 16.3 8.0 49 5.5 WSW 11 15 6 8 1027.3 1027.4 0.0
27/11:30am 18.2 16.0 8.0 51 5.2 WSW 9 11 5 6 1027.7 - 0.0
27/11:00am 18.4 14.3 7.7 49 5.5 W 19 22 10 12 1027.8 - 0.0
27/10:30am 19.4 17.2 5.2 39 6.9 NNE 6 11 3 6 1027.8 - 0.0
27/10:00am 19.1 15.8 4.7 38 7.0 NNE 11 20 6 11 1027.6 - 0.0
27/09:30am 18.3 15.3 4.1 39 6.7 N 9 15 5 8 1027.4 - 0.0
27/09:00am 16.2 13.4 5.0 47 5.3 NNW 9 13 5 7 1027.3 1027.4 0.0
27/08:30am 13.0 11.7 6.0 62 3.3 N 2 9 1 5 1027.0 - 0.0
27/08:00am 9.4 7.2 5.4 76 1.8 NNE 6 7 3 4 1026.9 - 0.0
27/07:30am 7.5 5.2 5.0 84 1.1 N 6 9 3 5 1026.4 - 0.0
27/07:00am 6.7 3.4 4.6 86 0.9 NE 11 15 6 8 1026.0 - 0.0
27/06:30am 6.1 3.2 4.7 91 0.6 NE 9 11 5 6 1026.1 - 0.0
27/06:00am 6.1 3.6 4.7 91 0.6 ENE 7 11 4 6 1026.0 1026.1 0.0
27/05:30am 6.2 4.6 4.6 89 0.7 SE 2 6 1 3 1026.1 - 0.0
27/05:00am 6.1 4.9 4.7 91 0.6 CALM 0 0 0 0 1026.1 - 0.0
27/04:30am 6.2 4.7 4.8 91 0.6 W 2 6 1 3 1025.5 - 0.0
27/04:00am 6.4 5.3 5.0 91 0.6 CALM 0 0 0 0 1025.1 - 0.0
27/03:30am 6.5 5.4 5.1 91 0.6 CALM 0 0 0 0 1025.3 - 0.0
27/03:00am 6.9 5.8 5.1 88 0.8 CALM 0 0 0 0 1025.1 1025.2 0.0
27/02:30am 6.9 5.8 5.3 89 0.7 CALM 0 0 0 0 1025.1 - 0.0
27/02:00am 7.4 6.0 5.4 87 0.9 NE 2 6 1 3 1025.2 - 0.0
27/01:30am 7.4 5.3 5.6 88 0.8 NNE 6 9 3 5 1025.3 - 0.0
27/01:00am 7.9 6.2 5.9 87 0.9 NNE 4 7 2 4 1025.5 - 0.0
27/12:30am 8.1 6.1 6.1 87 0.9 NNE 6 9 3 5 1025.4 - 0.0
27/12:00am 8.3 7.1 6.3 87 0.9 NE 2 6 1 3 1025.6 1025.7 0.0
 
Date/Time
CST
Tmp

°C
App
Tmp
°C
Dew
Point
°C
Rel
Hum
%
Delta-T

°C
Wind Press
QNH
hPa
Press
MSL
hPa
Rain
since
9 am
mm
Dir
 
Spd
km/h
Gust
km/h
Spd
kts
Gust
kts
26/11:30pm 8.9 6.8 6.5 85 1.1 NNE 7 11 4 6 1025.4 - 0.0
26/11:00pm 9.0 8.3 7.1 88 0.9 CALM 0 0 0 0 1025.6 - 0.0
26/10:30pm 9.6 9.0 7.3 85 1.1 CALM 0 0 0 0 1025.7 - 0.0
26/10:00pm 9.9 9.3 7.6 85 1.1 CALM 0 0 0 0 1025.8 - 0.0
26/09:30pm 10.8 10.3 7.9 82 1.4 CALM 0 0 0 0 1025.7 - 0.0
26/09:00pm 10.9 10.5 8.4 84 1.2 CALM 0 0 0 0 1025.8 1025.9 0.0
26/08:30pm 11.6 11.3 8.8 83 1.4 CALM 0 0 0 0 1025.6 - 0.0
26/08:00pm 12.1 11.8 8.7 80 1.7 CALM 0 0 0 0 1025.4 - 0.0
26/07:30pm 13.2 12.9 8.6 73 2.3 CALM 0 0 0 0 1025.2 - 0.0
26/07:00pm 14.0 13.6 8.2 68 2.9 CALM 0 0 0 0 1025.1 - 0.0
26/06:30pm 14.5 13.0 8.3 66 3.1 SW 6 7 3 4 1024.8 - 0.0
26/06:00pm 15.3 13.6 8.3 63 3.5 SW 7 9 4 5 1024.6 1024.7 0.0
26/05:30pm 16.3 14.0 7.5 56 4.4 SW 9 13 5 7 1024.4 - 0.0
26/05:00pm 16.9 14.2 7.3 53 4.8 WSW 11 15 6 8 1024.3 - 0.0
26/04:30pm 17.1 13.9 6.8 50 5.1 SW 13 19 7 10 1024.1 - 0.0
26/04:00pm 17.4 14.2 6.9 50 5.2 WSW 13 20 7 11 1024.2 - 0.0
26/03:30pm 17.9 14.3 6.8 48 5.5 WSW 15 20 8 11 1024.2 - 0.0
26/03:00pm 18.8 16.1 7.3 47 5.8 WSW 11 19 6 10 1024.2 1024.3 0.0
26/02:30pm 18.8 16.5 7.6 48 5.7 W 9 17 5 9 1024.3 - 0.0
26/02:00pm 18.0 15.3 7.5 50 5.3 WSW 11 19 6 10 1024.6 - 0.0
26/01:30pm 17.8 14.8 7.9 52 5.0 WSW 13 19 7 10 1024.9 - 0.0
26/01:00pm 18.3 15.7 7.9 50 5.3 WSW 11 15 6 8 1025.2 - 0.0
26/12:30pm 18.7 16.5 5.3 41 6.5 N 6 15 3 8 1025.5 - 0.0
26/12:00pm 17.7 14.4 4.6 42 6.2 NNE 11 19 6 10 1026.0 1026.1 0.0
26/11:30am 17.0 14.1 4.4 43 6.0 NE 9 17 5 9 1026.5 - 0.0
26/11:00am 17.1 13.8 4.3 42 6.0 N 11 19 6 10 1027.1 - 0.0
26/10:30am 16.6 13.6 5.8 49 5.2 NE 11 22 6 12 1027.3 - 0.0
26/10:00am 15.4 13.4 6.3 54 4.4 WNW 6 13 3 7 1027.6 - 0.0
26/09:30am 14.3 12.5 7.1 62 3.5 N 6 9 3 5 1028.0 - 0.0
26/09:00am 12.2 11.4 6.7 69 2.6 CALM 0 0 0 0 1028.1 1028.2 0.0
26/08:30am 10.2 9.1 7.0 80 1.5 WSW 2 7 1 4 1028.1 - 0.0
26/08:00am 7.3 5.2 5.7 89 0.7 SSW 6 7 3 4 1028.0 - 0.0
26/07:30am 5.7 4.5 4.8 94 0.4 CALM 0 0 0 0 1027.7 - 0.0
26/07:00am 5.5 3.0 4.6 94 0.4 SSE 7 7 4 4 1027.5 - 0.0
26/06:30am 5.0 3.3 4.0 93 0.4 SW 2 7 1 4 1027.1 - 0.0
26/06:00am 4.9 2.4 3.9 93 0.4 N 6 7 3 4 1026.8 1026.9 0.0
26/05:30am 5.1 3.8 4.1 93 0.4 CALM 0 0 0 0 1026.6 - 0.0
26/05:00am 5.3 4.1 4.4 94 0.4 CALM 0 0 0 0 1026.7 - 0.0
26/04:30am 5.5 4.2 4.3 92 0.5 CALM 0 0 0 0 1026.6 - 0.0
26/04:00am 5.7 4.4 4.3 91 0.6 CALM 0 0 0 0 1026.8 - 0.0
26/03:30am 5.9 4.7 4.7 92 0.5 CALM 0 0 0 0 1026.8 - 0.0
26/03:00am 6.5 5.4 5.1 91 0.6 CALM 0 0 0 0 1027.1 1027.2 0.0
26/02:30am 7.0 4.8 5.4 89 0.7 SE 6 7 3 4 1027.4 - 0.0
26/02:00am 7.1 5.7 5.3 88 0.8 ESE 2 7 1 4 1027.5 - 0.0
26/01:30am 7.3 5.9 5.3 87 0.9 ESE 2 6 1 3 1027.7 - 0.0
26/01:00am 7.7 5.3 5.2 84 1.1 SE 7 9 4 5 1027.7 - 0.0
26/12:30am 7.6 6.5 5.3 85 1.0 CALM 0 0 0 0 1027.8 - 0.0
26/12:00am 8.0 5.9 5.8 86 1.0 NNE 6 7 3 4 1028.0 1028.1 0.0
 
Date/Time
CST
Tmp

°C
App
Tmp
°C
Dew
Point
°C
Rel
Hum
%
Delta-T

°C
Wind Press
QNH
hPa
Press
MSL
hPa
Rain
since
9 am
mm
Dir
 
Spd
km/h
Gust
km/h
Spd
kts
Gust
kts
25/11:30pm 8.2 7.3 6.0 86 1.0 CALM 0 0 0 0 1028.2 - 0.0
25/11:00pm 8.5 6.5 6.3 86 1.0 E 6 9 3 5 1028.3 - 0.0
25/10:30pm 9.0 8.2 6.6 85 1.1 CALM 0 0 0 0 1028.5 - 0.0
25/10:00pm 9.5 8.7 6.5 81 1.4 CALM 0 0 0 0 1028.7 - 0.0
25/09:30pm 10.2 8.2 6.3 77 1.8 E 6 11 3 6 1028.8 - 0.0
25/09:00pm 10.8 8.2 6.0 72 2.2 SE 9 17 5 9 1029.0 1029.1 0.0
25/08:30pm 10.8 7.9 6.5 75 2.0 SSE 11 15 6 8 1029.1 - 0.0
25/08:00pm 11.0 9.1 7.7 80 1.6 SSE 7 11 4 6 1028.8 - 0.0
25/07:30pm 11.6 11.4 9.0 84 1.3 CALM 0 0 0 0 1028.7 - 0.0
25/07:00pm 12.0 10.7 9.2 83 1.4 SW 6 7 3 4 1028.5 - 0.0
25/06:30pm 12.6 10.7 9.0 79 1.8 SW 9 13 5 7 1028.4 - 0.0

Latest Capital City Observations: Canberra | Sydney | Melbourne | Brisbane | Adelaide | Perth | Hobart | Darwin

Other Formats:

Comma delimited format used in spreadsheet applications
http://www.bom.gov.au/fwo/IDS60901/IDS60901.94675.axf

JavaScript Object Notation format (JSON) in row-major order
http://www.bom.gov.au/fwo/IDS60901/IDS60901.94675.json